createdAt,value
2019-05-22T00:01:02.269Z,17.40
2019-05-22T00:05:57.136Z,17.30
2019-05-22T00:10:54.088Z,17.20
2019-05-22T00:15:50.339Z,17.10
2019-05-22T00:20:45.383Z,17.10
2019-05-22T00:25:41.195Z,17.00
2019-05-22T00:30:39.553Z,17.00
2019-05-22T00:35:36.025Z,17.00
2019-05-22T00:40:31.838Z,17.00
2019-05-22T00:45:28.861Z,17.00
2019-05-22T00:50:33.129Z,16.90
2019-05-22T00:55:33.903Z,16.80
2019-05-22T01:00:45.637Z,16.80
2019-05-22T01:05:43.272Z,16.80
2019-05-22T01:10:39.084Z,16.70
2019-05-22T01:15:34.578Z,16.70
2019-05-22T01:20:29.723Z,16.60
2019-05-22T01:25:24.740Z,16.60
2019-05-22T01:30:37.598Z,16.60
2019-05-22T01:35:41.598Z,16.60
2019-05-22T01:40:42.736Z,16.60
2019-05-22T01:45:38.598Z,16.70
2019-05-22T01:50:41.508Z,16.60
2019-05-22T01:55:36.404Z,16.50
2019-05-22T02:00:31.780Z,16.40
2019-05-22T02:05:26.982Z,16.40
2019-05-22T02:10:27.695Z,16.30
2019-05-22T02:15:22.230Z,16.30
2019-05-22T02:20:17.233Z,16.30
2019-05-22T02:25:14.859Z,16.20
2019-05-22T02:30:11.270Z,16.20
2019-05-22T02:35:07.199Z,16.10
2019-05-22T02:40:03.499Z,16.10
2019-05-22T02:44:58.264Z,16.10
2019-05-22T03:14:46.002Z,16.00
2019-05-22T03:19:45.842Z,16.00
2019-05-22T03:24:41.753Z,16.00
2019-05-22T03:29:41.506Z,15.90
2019-05-22T03:39:40.493Z,15.90
2019-05-22T03:44:34.335Z,15.80
2019-05-22T03:49:31.285Z,15.90
2019-05-22T03:54:25.532Z,15.80
2019-05-22T03:59:20.574Z,15.80
2019-05-22T04:04:17.024Z,15.70
2019-05-22T04:09:20.925Z,15.70
2019-05-22T04:14:17.537Z,15.70
2019-05-22T04:19:15.215Z,15.70
2019-05-22T04:24:11.010Z,15.60
2019-05-22T04:29:06.340Z,15.60
2019-05-22T04:34:02.079Z,15.50
2019-05-22T04:43:54.050Z,15.30
2019-05-22T04:48:47.941Z,15.30
2019-05-22T04:53:42.856Z,15.20
2019-05-22T04:58:37.678Z,15.20
2019-05-22T05:03:33.079Z,15.20
2019-05-22T05:08:27.625Z,15.20
2019-05-22T05:13:24.031Z,15.20
2019-05-22T05:18:19.169Z,15.10
2019-05-22T05:23:14.079Z,15.20
2019-05-22T05:28:09.753Z,15.10
2019-05-22T05:33:05.256Z,15.20
2019-05-22T05:37:59.915Z,15.20
2019-05-22T05:42:55.156Z,15.20
2019-05-22T05:47:51.652Z,15.20
2019-05-22T05:52:47.634Z,15.10
2019-05-22T05:57:54.964Z,15.20
2019-05-22T06:02:56.482Z,15.20
2019-05-22T06:07:45.966Z,15.20
2019-05-22T06:12:41.684Z,15.20
2019-05-22T06:18:03.165Z,15.30
2019-05-22T06:23:20.262Z,15.30
2019-05-22T06:28:15.241Z,15.30
2019-05-22T06:33:14.046Z,15.30
2019-05-22T06:38:45.042Z,15.30
2019-05-22T06:43:47.216Z,15.30
2019-05-22T06:48:42.004Z,15.20
2019-05-22T06:53:36.622Z,15.10
2019-05-22T06:58:32.798Z,15.10
2019-05-22T07:03:30.490Z,15.00
2019-05-22T07:08:24.243Z,15.10
2019-05-22T07:13:20.192Z,15.20
2019-05-22T07:18:19.085Z,15.20
2019-05-22T07:23:20.097Z,15.20
2019-05-22T07:28:18.510Z,15.20
2019-05-22T07:33:13.777Z,15.20
2019-05-22T07:38:10.191Z,15.20
2019-05-22T07:43:06.858Z,15.20
2019-05-22T07:48:09.861Z,15.20
2019-05-22T07:53:09.406Z,15.10
2019-05-22T07:58:16.149Z,15.20
2019-05-22T08:03:11.806Z,15.20
2019-05-22T08:08:08.742Z,15.20
2019-05-22T08:13:05.325Z,15.40
2019-05-22T08:18:02.524Z,15.40
2019-05-22T08:22:59.622Z,15.30
2019-05-22T08:27:56.674Z,15.40
2019-05-22T08:32:51.110Z,15.40
2019-05-22T08:37:50.779Z,15.40
2019-05-22T08:42:50.771Z,15.30
2019-05-22T08:47:46.685Z,15.20
2019-05-22T08:52:43.469Z,15.20
2019-05-22T08:57:44.134Z,15.20
2019-05-22T09:02:40.141Z,15.10
2019-05-22T09:07:35.628Z,15.10
2019-05-22T09:12:30.901Z,14.90
2019-05-22T09:17:26.191Z,14.90
2019-05-22T09:22:21.647Z,14.90
2019-05-22T09:27:16.918Z,14.80
2019-05-22T09:32:11.828Z,14.80
2019-05-22T09:37:08.266Z,14.80
2019-05-22T09:42:04.858Z,14.80
2019-05-22T09:46:59.385Z,14.80
2019-05-22T09:51:55.472Z,14.90
2019-05-22T09:56:50.149Z,14.90
2019-05-22T10:01:48.092Z,14.90
2019-05-22T10:06:43.484Z,14.90
2019-05-22T10:11:37.816Z,14.90
2019-05-22T10:16:34.834Z,15.00
2019-05-22T10:21:30.593Z,14.90
2019-05-22T10:26:25.806Z,14.90
2019-05-22T10:31:21.853Z,14.90
2019-05-22T10:36:17.233Z,14.90
2019-05-22T10:41:11.302Z,14.80
2019-05-22T10:46:09.437Z,14.70
2019-05-22T10:51:03.816Z,14.60
2019-05-22T10:55:58.853Z,14.60
2019-05-22T11:00:54.952Z,14.60
2019-05-22T11:06:05.878Z,14.60
2019-05-22T11:10:46.412Z,14.50
2019-05-22T11:15:41.420Z,14.60
2019-05-22T11:20:44.170Z,14.60
2019-05-22T11:25:42.414Z,14.50
2019-05-22T11:30:37.169Z,14.50
2019-05-22T11:35:35.297Z,14.50
2019-05-22T11:40:32.536Z,14.50
2019-05-22T11:45:31.954Z,14.60
2019-05-22T11:50:28.328Z,14.70
2019-05-22T11:55:22.753Z,14.80
2019-05-22T12:00:20.368Z,14.90
2019-05-22T12:05:16.769Z,15.20
2019-05-22T12:10:12.817Z,15.30
2019-05-22T12:15:11.073Z,15.40
2019-05-22T12:20:10.498Z,15.40
2019-05-22T12:25:10.875Z,15.60
2019-05-22T12:30:07.568Z,15.70
2019-05-22T12:35:01.977Z,15.80
2019-05-22T12:39:58.226Z,15.80
2019-05-22T12:44:53.732Z,15.70
2019-05-22T12:49:48.822Z,15.60
2019-05-22T12:54:51.482Z,15.50
2019-05-22T12:59:41.784Z,15.50
2019-05-22T13:04:36.713Z,15.40
2019-05-22T13:09:32.537Z,15.30
2019-05-22T13:24:20.342Z,14.80
2019-05-22T13:29:16.828Z,14.70
2019-05-22T13:34:13.864Z,14.80
2019-05-22T13:39:10.200Z,14.90
2019-05-22T13:44:05.851Z,15.10
2019-05-22T13:49:00.443Z,15.00
2019-05-22T13:53:54.317Z,15.00
2019-05-22T13:58:51.051Z,14.90
2019-05-22T14:03:45.723Z,14.80
2019-05-22T14:08:40.609Z,14.70
2019-05-22T14:13:35.714Z,14.70
2019-05-22T14:18:30.545Z,14.60
2019-05-22T14:23:24.597Z,14.70
2019-05-22T14:28:20.893Z,14.60
2019-05-22T14:33:17.021Z,14.60
2019-05-22T14:43:06.905Z,14.40
2019-05-22T14:48:02.167Z,14.40
2019-05-22T14:52:59.677Z,14.40
2019-05-22T14:57:55.276Z,14.30
2019-05-22T15:02:55.363Z,14.30
2019-05-22T15:07:47.793Z,14.30
2019-05-22T15:12:44.148Z,14.30
2019-05-22T15:17:38.974Z,14.30
2019-05-22T15:22:33.595Z,14.30
2019-05-22T15:27:28.482Z,14.30
2019-05-22T15:32:24.021Z,14.30
2019-05-22T15:37:21.452Z,14.20
2019-05-22T15:42:48.522Z,14.20
2019-05-22T15:47:54.436Z,14.10
2019-05-22T15:52:41.625Z,14.10
2019-05-22T16:07:30.199Z,13.90
2019-05-22T16:12:25.273Z,13.90
2019-05-22T16:17:21.627Z,13.90
2019-05-22T16:22:15.920Z,13.90
2019-05-22T16:27:15.519Z,13.90
2019-05-22T16:32:10.361Z,13.80
2019-05-22T16:37:04.987Z,13.80
2019-05-22T16:42:00.733Z,13.80
2019-05-22T16:46:57.391Z,13.70
2019-05-22T16:51:53.136Z,13.70
2019-05-22T16:56:47.511Z,13.70
2019-05-22T17:01:57.798Z,13.70
2019-05-22T17:06:43.266Z,13.60
2019-05-22T17:11:38.281Z,13.60
2019-05-22T17:16:37.664Z,13.50
2019-05-22T17:21:32.316Z,13.50
2019-05-22T17:26:27.703Z,13.50
2019-05-22T17:31:23.091Z,13.50
2019-05-22T17:36:19.120Z,13.50
2019-05-22T17:41:13.957Z,13.40
2019-05-22T17:51:05.331Z,13.40
2019-05-22T17:55:59.859Z,13.40
2019-05-22T18:00:54.755Z,13.40
2019-05-22T18:11:00.603Z,13.30
2019-05-22T18:15:54.785Z,13.30
2019-05-22T18:20:49.599Z,13.30
2019-05-22T18:25:45.012Z,13.30
2019-05-22T18:30:48.020Z,13.30
2019-05-22T18:35:44.337Z,13.30
2019-05-22T18:40:39.368Z,13.30
2019-05-22T18:45:33.697Z,13.30
2019-05-22T18:50:27.850Z,13.30
2019-05-22T18:55:21.861Z,13.20
2019-05-22T19:00:19.693Z,13.30
2019-05-22T19:05:14.799Z,13.30
2019-05-22T19:10:09.724Z,13.30
2019-05-22T19:15:08.896Z,13.20
2019-05-22T19:20:05.233Z,13.20
2019-05-22T19:25:00.551Z,13.20
2019-05-22T19:29:55.056Z,13.20
2019-05-22T19:34:49.047Z,13.30
2019-05-22T19:45:45.376Z,13.30
2019-05-22T19:50:41.268Z,13.30
2019-05-22T19:55:36.006Z,13.30
2019-05-22T20:00:32.112Z,13.30
2019-05-22T20:05:26.675Z,13.20
2019-05-22T20:10:21.518Z,13.30
2019-05-22T20:15:16.403Z,13.30
2019-05-22T20:20:13.279Z,13.30
2019-05-22T20:25:09.152Z,13.30
2019-05-22T20:30:06.224Z,13.30
2019-05-22T20:35:01.174Z,13.30
2019-05-22T20:39:59.901Z,13.20
2019-05-22T20:44:54.480Z,13.30
2019-05-22T20:49:49.768Z,13.20
2019-05-22T20:59:39.194Z,13.10
2019-05-22T21:04:33.721Z,13.10
2019-05-22T21:09:28.787Z,13.20
2019-05-22T21:14:24.984Z,13.10
2019-05-22T21:19:23.439Z,13.20
2019-05-22T21:24:15.699Z,13.20
2019-05-22T21:29:10.408Z,13.20
2019-05-22T21:34:07.719Z,13.20
2019-05-22T21:39:01.608Z,13.20
2019-05-22T21:44:15.044Z,13.30
2019-05-22T21:49:13.791Z,13.20
2019-05-22T22:04:01.061Z,13.20
2019-05-22T22:08:55.635Z,13.20
2019-05-22T22:13:49.966Z,13.20
2019-05-22T22:18:44.119Z,13.10
2019-05-22T22:23:40.507Z,13.10
2019-05-22T22:28:34.849Z,13.10
2019-05-22T22:33:34.463Z,13.00
2019-05-22T22:38:28.908Z,13.00
2019-05-22T22:48:31.611Z,13.00
2019-05-22T22:53:23.921Z,12.90
2019-05-22T22:58:20.072Z,12.90
2019-05-22T23:03:18.431Z,12.80
2019-05-22T23:08:17.869Z,12.80
2019-05-22T23:13:12.594Z,12.70
2019-05-22T23:18:11.443Z,12.70
2019-05-22T23:23:07.495Z,12.70
2019-05-22T23:28:05.285Z,12.70
2019-05-22T23:33:00.165Z,12.70
2019-05-22T23:37:54.599Z,12.70
2019-05-22T23:42:50.886Z,12.60
2019-05-22T23:47:51.331Z,12.50
2019-05-22T23:52:45.103Z,12.60
2019-05-22T23:57:40.149Z,12.60
